KAAF/AAF METAR and TAF weather

Enter ICAO airport designator
Station Type Date Time Source
KAAF METAR 2020/10/29 17:16 UTC NOAA

KAAF 291716Z AUTO 25015G21KT 10SM FEW017 BKN046 OVC060 28/24 A2991 RMK AO2 T02830244


Station Type Date Time Source
KAAF Decoded METAR 2020/10/29 17:16 UTC NOAA

APALACHICOLA MUNICIPAL AIRPORT, FL, United States (KAAF) 29-44N 085-01W 5M
Oct 29, 2020 - 01:16 PM EDT / 2020.10.29 1716 UTC
Wind: from the WSW (250 degrees) at 17 MPH (15 KT) gusting to 24 MPH (21 KT):0
Visibility: 10 mile(s):0
Sky conditions: overcast
Temperature: 82.9 F (28.3 C)
Dew Point: 75.9 F (24.4 C)
Relative Humidity: 79%
Pressure (altimeter): 29.91 in. Hg (1012 hPa)
ob: KAAF 291716Z AUTO 25015G21KT 10SM FEW017 BKN046 OVC060 28/24 A2991 RMK AO2 T02830244
cycle: 17

Station Type Date Time Source
KAAF TAF UTC NOAA

Error!

Example: see airport list